Time;durP1;ratioP1;P1;durP2;ratioP2;P2;SDS_P1;SDS_P2;PMS_P1;PMS_P2;Temp;Humidity;BMP_temperature;BMP_pressure;BME280_temperature;BME280_humidity;BME280_pressure;Samples;Min_cycle;Max_cycle;Signal;HPM_P1;HPM_P2
2023/04/03 04:31:20;;;;;;;;;15.00;15.00;;;;;9.86;58.54;102231.44;1431982;26;46169;-75
2023/04/03 04:33:46;;;;;;;;;16.50;15.00;;;;;9.84;57.30;102226.09;5075318;27;45680;-75
2023/04/03 04:36:11;;;;;;;;;15.25;14.25;;;;;9.78;57.45;102219.97;5073614;28;45383;-77
2023/04/03 04:38:36;;;;;;;;;13.25;13.25;;;;;9.80;56.66;102232.41;5075197;27;47480;-75
2023/04/03 04:41:02;;;;;;;;;15.75;15.50;;;;;9.76;57.09;102213.75;5073486;28;46388;-75
2023/04/03 04:43:27;;;;;;;;;14.00;12.00;;;;;9.80;56.14;102226.16;5075021;27;45333;-75
2023/04/03 04:46:01;;;;;;;;;14.75;14.75;;;;;9.79;56.57;102232.44;5075096;27;45213;-76
2023/04/03 04:48:27;;;;;;;;;15.00;13.50;;;;;9.74;55.99;102232.53;5090747;27;45317;-75
2023/04/03 04:50:52;;;;;;;;;19.75;15.25;;;;;9.51;56.07;102199.94;5075107;28;53900;-75
2023/04/03 04:53:17;;;;;;;;;16.25;15.00;;;;;9.73;56.68;102240.59;5092074;27;45428;-75
2023/04/03 04:55:43;;;;;;;;;15.00;15.00;;;;;9.74;55.72;102239.69;5077298;27;45312;-75
2023/04/03 04:58:08;;;;;;;;;12.00;12.00;;;;;9.72;56.72;102228.09;5076212;27;45242;-75
2023/04/03 05:00:33;;;;;;;;;15.00;15.00;;;;;9.74;55.87;102235.22;5074593;27;46091;-75
2023/04/03 05:02:59;;;;;;;;;14.75;13.50;;;;;9.67;55.87;102216.63;5074554;27;45381;-75
2023/04/03 05:05:24;;;;;;;;;19.50;16.75;;;;;9.72;55.66;102231.66;5074560;27;45536;-76
2023/04/03 05:07:49;;;;;;;;;17.00;13.00;;;;;9.72;55.47;102234.34;5074817;27;45492;-73
2023/04/03 05:10:15;;;;;;;;;12.50;12.50;;;;;9.64;55.17;102228.25;5074676;27;51840;-77
2023/04/03 05:12:40;;;;;;;;;17.75;17.00;;;;;9.55;54.69;102215.03;5077440;27;45360;-76
2023/04/03 05:15:06;;;;;;;;;19.25;18.00;;;;;9.69;55.21;102245.13;5062757;28;45386;-79
2023/04/03 05:17:31;;;;;;;;;14.25;14.25;;;;;9.61;54.56;102227.44;5074768;27;45416;-77
2023/04/03 05:19:57;;;;;;;;;13.25;13.25;;;;;9.64;54.20;102240.75;5075192;27;45574;-78
2023/04/03 05:22:22;;;;;;;;;15.50;13.75;;;;;9.57;54.23;102231.97;5090236;27;48692;-78
2023/04/03 05:24:47;;;;;;;;;20.25;15.25;;;;;9.60;53.58;102244.41;5075110;27;45306;-74
2023/04/03 05:27:13;;;;;;;;;16.25;16.25;;;;;9.59;54.16;102246.22;5075078;27;45453;-75
2023/04/03 05:29:38;;;;;;;;;18.25;14.50;;;;;9.54;54.36;102244.50;5075161;28;46411;-78
2023/04/03 05:32:04;;;;;;;;;14.50;14.50;;;;;9.17;54.35;102180.06;5074786;27;45514;-76
2023/04/03 05:34:29;;;;;;;;;17.00;16.00;;;;;9.50;53.77;102249.06;5073803;28;45519;-75
2023/04/03 05:36:54;;;;;;;;;21.75;18.00;;;;;9.44;54.42;102231.28;5074561;27;45499;-77
2023/04/03 05:39:20;;;;;;;;;19.50;17.25;;;;;9.44;54.26;102233.09;5074483;27;45852;-74
2023/04/03 05:41:45;;;;;;;;;19.00;16.00;;;;;9.48;54.18;102246.41;5074745;27;45426;-78
2023/04/03 05:44:10;;;;;;;;;14.75;14.75;;;;;9.46;54.17;102245.53;5074636;27;45457;-78
2023/04/03 05:46:36;;;;;;;;;15.25;15.25;;;;;9.32;54.82;102228.84;5089740;27;45977;-78
2023/04/03 05:49:01;;;;;;;;;17.00;15.25;;;;;9.13;53.99;102197.03;5073849;27;45332;-76
2023/04/03 05:51:34;;;;;;;;;21.25;19.75;;;;;9.40;54.06;102245.66;5072965;28;45314;-80
2023/04/03 05:54:07;;;;;;;;;23.25;19.75;;;;;9.44;53.47;102252.69;5076245;27;45311;-73
2023/04/03 05:56:32;;;;;;;;;20.00;14.50;;;;;9.43;53.25;102250.06;5072436;28;45518;-72
2023/04/03 05:58:57;;;;;;;;;14.25;14.25;;;;;9.44;53.47;102257.19;5084732;27;46180;-71
2023/04/03 06:01:23;;;;;;;;;20.00;18.75;;;;;9.36;53.72;102243.91;5073317;27;45525;-75
2023/04/03 06:03:48;;;;;;;;;16.25;15.00;;;;;9.34;53.27;102243.06;5072270;28;45434;-71
2023/04/03 06:06:15;;;;;;;;;17.25;14.75;;;;;9.39;53.11;102253.69;5072893;27;45494;-72
2023/04/03 06:08:40;;;;;;;;;20.50;18.75;;;;;9.39;52.42;102259.03;5072972;27;45579;-72
2023/04/03 06:11:05;;;;;;;;;16.50;16.25;;;;;9.37;52.91;102258.19;5071592;28;45660;-73
2023/04/03 06:13:31;;;;;;;;;22.00;17.25;;;;;9.36;52.43;102256.41;5072975;27;45490;-71
2023/04/03 06:15:57;;;;;;;;;17.75;15.75;;;;;9.30;52.91;102252.06;5073606;27;45584;-72
2023/04/03 06:18:22;;;;;;;;;24.50;17.25;;;;;9.33;52.27;102264.50;5073489;27;45944;-73
2023/04/03 06:20:47;;;;;;;;;19.75;19.00;;;;;9.26;52.18;102252.16;5073254;27;45401;-72
2023/04/03 06:23:13;;;;;;;;;19.75;19.50;;;;;9.34;51.99;102259.13;5071610;27;45606;-71
2023/04/03 06:25:38;;;;;;;;;19.25;17.50;;;;;9.37;52.35;102255.50;5072812;27;45528;-73
2023/04/03 06:28:03;;;;;;;;;15.00;11.25;;;;;9.34;52.79;102247.53;5074482;27;45464;-72
2023/04/03 06:30:29;;;;;;;;;17.25;17.00;;;;;9.36;52.55;102253.72;5076273;27;45379;-72
2023/04/03 06:32:56;;;;;;;;;17.50;14.50;;;;;9.40;52.46;102264.38;5076609;27;45436;-72
2023/04/03 06:35:23;;;;;;;;;19.00;15.00;;;;;9.33;52.37;102248.44;5077240;28;45398;-72
2023/04/03 06:37:49;;;;;;;;;19.00;17.75;;;;;9.37;52.31;102261.75;5075545;28;46133;-71
2023/04/03 06:40:20;;;;;;;;;19.00;18.00;;;;;9.40;52.27;102252.78;5077234;27;45364;-71
2023/04/03 06:42:46;;;;;;;;;16.00;15.75;;;;;9.41;52.38;102252.75;5077147;27;45303;-70
2023/04/03 06:45:12;;;;;;;;;15.00;15.00;;;;;9.47;52.13;102259.78;5076892;27;45367;-71
2023/04/03 06:47:37;;;;;;;;;20.00;18.25;;;;;9.51;51.50;102269.56;5076903;28;45492;-72
2023/04/03 06:50:03;;;;;;;;;23.50;19.00;;;;;9.48;51.61;102267.81;5076906;27;45605;-71
2023/04/03 06:52:28;;;;;;;;;20.50;20.25;;;;;9.48;51.47;102264.25;5075949;27;45323;-72
2023/04/03 06:54:57;;;;;;;;;22.50;19.00;;;;;9.45;51.93;102261.59;5076659;27;45383;-72
2023/04/03 06:57:22;;;;;;;;;19.25;16.50;;;;;9.33;51.63;102240.41;5076410;27;45340;-71
2023/04/03 06:59:47;;;;;;;;;16.75;16.75;;;;;9.52;52.15;102270.44;5076792;27;45262;-72
2023/04/03 07:02:13;;;;;;;;;16.50;16.00;;;;;9.47;51.36;102258.00;5076607;27;45345;-72
2023/04/03 07:04:38;;;;;;;;;21.25;16.75;;;;;9.52;51.32;102267.78;5080121;27;45957;-73
2023/04/03 07:07:04;;;;;;;;;17.25;16.25;;;;;9.53;51.45;102278.41;5071602;28;46400;-71
2023/04/03 07:09:29;;;;;;;;;16.50;15.25;;;;;9.49;51.36;102263.34;5076492;27;45523;-73
2023/04/03 07:11:54;;;;;;;;;21.50;19.00;;;;;9.45;51.81;102251.78;5076544;28;45578;-71
2023/04/03 07:14:20;;;;;;;;;21.00;20.00;;;;;9.34;52.23;102228.81;5075930;27;45398;-71
2023/04/03 07:16:46;;;;;;;;;15.50;13.00;;;;;9.56;51.97;102256.06;5075854;27;47038;-73
2023/04/03 07:19:11;;;;;;;;;19.00;15.25;;;;;9.59;51.86;102256.91;5076077;27;45387;-73
2023/04/03 07:21:37;;;;;;;;;16.25;16.25;;;;;9.64;51.04;102264.84;5076005;27;45370;-73
2023/04/03 07:24:02;;;;;;;;;20.25;20.25;;;;;9.71;51.48;102263.81;5074426;28;46163;-73
2023/04/03 07:26:28;;;;;;;;;18.25;16.50;;;;;9.72;51.85;102263.81;5075956;28;46495;-73
2023/04/03 07:28:53;;;;;;;;;17.00;16.75;;;;;9.63;51.19;102236.31;5076441;27;46111;-72
2023/04/03 07:31:18;;;;;;;;;21.75;20.50;;;;;9.70;51.51;102249.56;5075770;27;45302;-72
2023/04/03 07:33:45;;;;;;;;;20.00;19.25;;;;;9.83;51.61;102267.19;5076305;27;45263;-72
2023/04/03 07:36:15;;;;;;;;;22.50;20.00;;;;;9.77;51.39;102256.59;5076387;27;46296;-73
2023/04/03 07:38:41;;;;;;;;;18.25;16.25;;;;;9.85;51.91;102265.38;5076861;27;45800;-73
2023/04/03 07:41:06;;;;;;;;;19.75;16.50;;;;;9.80;51.06;102259.19;5076233;27;45519;-78
2023/04/03 07:43:32;;;;;;;;;19.50;17.75;;;;;9.92;51.43;102263.44;5075874;28;45458;-73
2023/04/03 07:45:57;;;;;;;;;19.75;17.25;;;;;9.94;51.54;102263.44;5075779;27;46003;-71
2023/04/03 07:48:25;;;;;;;;;20.50;18.50;;;;;10.04;51.16;102271.22;5076039;27;45314;-74
2023/04/03 07:50:51;;;;;;;;;21.75;20.00;;;;;10.07;50.72;102263.16;5075736;27;45348;-72
2023/04/03 07:53:16;;;;;;;;;15.75;15.50;;;;;10.14;50.33;102274.63;5076107;27;45760;-72
2023/04/03 07:55:42;;;;;;;;;13.00;10.75;;;;;9.98;50.78;102255.28;5075574;28;45460;-72
2023/04/03 07:58:14;;;;;;;;;17.75;17.75;;;;;10.10;51.20;102268.47;5075876;27;45258;-73
2023/04/03 08:00:40;;;;;;;;;14.50;14.50;;;;;10.16;50.96;102283.53;5075773;28;45273;-73
2023/04/03 08:03:06;;;;;;;;;20.00;16.50;;;;;10.21;50.18;102271.81;5075731;27;45360;-72
2023/04/03 08:05:31;;;;;;;;;17.75;17.75;;;;;10.08;49.97;102264.91;5075160;27;46089;-72
2023/04/03 08:07:57;;;;;;;;;18.00;15.75;;;;;10.24;50.98;102281.59;5090834;27;46069;-72
2023/04/03 08:10:22;;;;;;;;;15.25;15.25;;;;;10.31;50.78;102288.59;5075343;27;45751;-73
2023/04/03 08:12:48;;;;;;;;;15.75;14.50;;;;;10.35;50.63;102278.72;5075605;27;45318;-71
2023/04/03 08:15:14;;;;;;;;;15.00;15.00;;;;;10.41;50.99;102275.91;5075079;27;46136;-72
2023/04/03 08:17:40;;;;;;;;;16.75;13.75;;;;;10.37;50.21;102263.50;5075203;27;45529;-72
2023/04/03 08:20:07;;;;;;;;;12.50;10.75;;;;;10.49;50.34;102285.56;5075376;27;45401;-71
2023/04/03 08:22:34;;;;;;;;;13.75;11.75;;;;;10.57;50.16;102282.69;5075226;27;46158;-73
2023/04/03 08:25:00;;;;;;;;;15.25;11.25;;;;;10.63;50.13;102279.91;5075259;27;46193;-73
2023/04/03 08:27:26;;;;;;;;;12.00;12.00;;;;;10.68;49.12;102274.44;5075524;28;45249;-72
2023/04/03 08:29:51;;;;;;;;;11.75;11.75;;;;;10.61;49.19;102262.97;5074964;28;45394;-73
2023/04/03 08:32:17;;;;;;;;;8.00;8.00;;;;;10.66;48.48;102258.38;5075371;27;45793;-72
2023/04/03 08:34:43;;;;;;;;;11.25;9.75;;;;;10.71;48.03;102280.63;5073681;28;46988;-76
2023/04/03 08:37:08;;;;;;;;;5.00;5.00;;;;;10.68;48.08;102264.59;5075187;27;45395;-72
2023/04/03 08:39:34;;;;;;;;;0.00;0.00;;;;;10.73;46.89;102276.09;5075315;27;45375;-73
2023/04/03 08:42:07;;;;;;;;;5.75;5.75;;;;;10.71;46.67;102280.63;5075092;27;45330;-71
2023/04/03 08:44:58;;;;;;;;;7.00;7.00;;;;;10.71;47.16;102275.25;5074612;27;45357;-72
2023/04/03 08:47:46;;;;;;;;;8.00;8.00;;;;;10.76;46.91;102285.88;5074764;27;45349;-73
2023/04/03 08:50:16;;;;;;;;;6.25;4.25;;;;;10.76;46.73;102276.03;5074386;27;45444;-73
2023/04/03 08:52:46;;;;;;;;;9.25;5.25;;;;;10.72;47.43;102286.88;5074141;27;45321;-73
2023/04/03 08:55:23;;;;;;;;;7.50;5.25;;;;;10.71;47.52;102277.06;5073432;28;47231;-72
2023/04/03 08:57:54;;;;;;;;;4.25;4.25;;;;;10.66;47.18;102254.81;5074757;27;45361;-72
2023/04/03 09:00:25;;;;;;;;;5.50;5.50;;;;;10.79;46.92;102275.09;5074936;27;45362;-71
2023/04/03 09:02:53;;;;;;;;;10.50;8.25;;;;;10.85;47.52;102278.50;5074830;27;45420;-72
2023/04/03 09:05:30;;;;;;;;;9.25;8.25;;;;;10.88;47.40;102274.88;5074063;27;45519;-73
2023/04/03 09:08:07;;;;;;;;;8.25;8.00;;;;;10.95;47.73;102277.38;5074814;27;45454;-72
2023/04/03 09:10:37;;;;;;;;;6.25;6.25;;;;;11.04;47.18;102265.56;5074950;27;45283;-71
2023/04/03 09:13:20;;;;;;;;;10.75;8.25;;;;;11.02;46.53;102255.78;5074585;27;45356;-71
2023/04/03 09:15:45;;;;;;;;;9.00;8.25;;;;;11.19;46.62;102266.97;5074600;27;46042;-73
2023/04/03 09:18:23;;;;;;;;;6.50;6.50;;;;;11.24;46.13;102267.75;5074762;28;45428;-70
2023/04/03 09:21:27;;;;;;;;;6.00;6.00;;;;;11.20;45.12;102275.00;5074462;28;45270;-71
2023/04/03 09:23:57;;;;;;;;;5.50;4.75;;;;;11.09;45.81;102273.50;5073916;27;45319;-72
2023/04/03 09:26:29;;;;;;;;;8.75;6.50;;;;;11.02;45.83;102264.69;5074576;28;45676;-73
2023/04/03 09:29:00;;;;;;;;;8.75;8.75;;;;;10.94;46.31;102266.69;5089025;27;45404;-73
2023/04/03 09:31:30;;;;;;;;;8.75;7.75;;;;;10.97;46.05;102272.00;5074081;27;45522;-71
2023/04/03 09:34:05;;;;;;;;;8.00;8.00;;;;;10.98;45.80;102260.31;5090053;27;45245;-72
2023/04/03 09:37:05;;;;;;;;;5.00;5.00;;;;;10.97;45.76;102274.69;5072810;28;45500;-71
2023/04/03 09:39:33;;;;;;;;;7.50;7.50;;;;;10.92;46.07;102280.13;5066736;27;45316;-72
2023/04/03 09:42:04;;;;;;;;;6.25;5.25;;;;;10.88;46.59;102288.31;5074796;27;45302;-72
2023/04/03 09:44:35;;;;;;;;;4.25;4.25;;;;;10.89;46.62;102284.66;5074408;28;45624;-71
2023/04/03 09:47:19;;;;;;;;;4.25;4.25;;;;;10.91;46.56;102278.38;5074589;27;45380;-72
2023/04/03 09:49:46;;;;;;;;;7.50;7.50;;;;;10.96;45.75;102279.16;5074389;27;45403;-73
2023/04/03 09:52:24;;;;;;;;;8.25;8.00;;;;;10.97;46.00;102283.56;5074014;28;45417;-72
2023/04/03 09:54:50;;;;;;;;;7.75;6.50;;;;;10.92;45.79;102272.09;5074146;27;45482;-71
2023/04/03 09:57:17;;;;;;;;;4.75;4.75;;;;;10.98;47.11;102269.25;5073935;27;45338;-72
2023/04/03 10:00:04;;;;;;;;;6.50;6.50;;;;;11.10;46.12;102277.94;5073916;27;45360;-74
2023/04/03 10:02:42;;;;;;;;;6.25;6.25;;;;;11.08;45.53;102277.97;5082279;27;45503;-70
2023/04/03 10:05:32;;;;;;;;;6.75;6.75;;;;;11.07;45.85;102278.88;5082012;27;46075;-74
2023/04/03 10:08:19;;;;;;;;;5.25;5.25;;;;;11.01;46.14;102257.56;5077487;27;46193;-71
2023/04/03 10:10:47;;;;;;;;;5.00;5.00;;;;;11.12;46.74;102263.56;5077375;28;45317;-73
2023/04/03 10:13:13;;;;;;;;;5.00;4.25;;;;;11.15;46.15;102257.22;5077955;27;45443;-71
2023/04/03 10:15:46;;;;;;;;;6.00;6.00;;;;;11.15;46.57;102249.19;5077268;27;45657;-73
2023/04/03 10:18:43;;;;;;;;;4.50;4.00;;;;;11.25;45.77;102245.34;5071127;28;46120;-73
2023/04/03 10:21:19;;;;;;;;;7.50;5.25;;;;;11.37;45.81;102251.31;5068314;28;45419;-75
2023/04/03 10:24:11;;;;;;;;;6.00;6.00;;;;;11.37;45.43;102237.88;5077434;27;45373;-75
2023/04/03 10:26:45;;;;;;;;;7.00;6.25;;;;;11.41;44.69;102241.34;5056936;28;45659;-75
2023/04/03 10:29:37;;;;;;;;;5.50;4.00;;;;;11.41;44.45;102244.03;5077057;27;46091;-73
2023/04/03 10:32:25;;;;;;;;;5.50;5.50;;;;;11.39;45.02;102229.81;5065007;28;45292;-77
2023/04/03 10:35:02;;;;;;;;;5.00;5.00;;;;;11.39;44.46;102235.16;5077713;27;45368;-75
2023/04/03 10:37:36;;;;;;;;;9.25;7.75;;;;;11.18;44.53;102188.25;5078408;27;45344;-73
2023/04/03 10:40:04;;;;;;;;;6.50;6.50;;;;;11.40;44.14;102226.16;5078211;27;45515;-74
2023/04/03 10:42:47;;;;;;;;;6.25;5.50;;;;;11.41;44.14;102214.50;5078039;27;45418;-75
2023/04/03 10:45:26;;;;;;;;;8.00;8.00;;;;;11.38;43.88;102204.75;5077655;27;45942;-72
2023/04/03 10:48:09;;;;;;;;;4.75;4.75;;;;;11.41;43.81;102206.44;5077060;27;45924;-70
2023/04/03 10:50:47;;;;;;;;;4.50;4.50;;;;;11.26;43.56;102172.84;5077827;27;46005;-76
2023/04/03 10:53:41;;;;;;;;;9.75;6.25;;;;;11.48;44.01;102210.75;5077904;27;45403;-76
2023/04/03 10:56:32;;;;;;;;;9.50;7.00;;;;;11.54;43.76;102210.59;5078194;27;45350;-75
2023/04/03 10:59:17;;;;;;;;;8.50;5.75;;;;;11.58;43.66;102211.38;5076891;28;45356;-74
2023/04/03 11:01:47;;;;;;;;;8.00;7.50;;;;;11.64;44.32;102200.50;5093315;27;46042;-71
2023/04/03 11:04:16;;;;;;;;;9.00;9.00;;;;;11.73;42.77;102202.94;5072151;28;45311;-70
2023/04/03 11:06:49;;;;;;;;;4.25;4.25;;;;;11.84;43.71;102205.31;5070088;28;45507;-72
2023/04/03 11:09:28;;;;;;;;;6.75;6.00;;;;;11.95;42.68;102189.78;5078743;27;45347;-73
2023/04/03 11:12:02;;;;;;;;;6.00;5.00;;;;;12.06;42.32;102185.88;5076074;28;45674;-73
2023/04/03 11:14:31;;;;;;;;;10.25;5.75;;;;;12.17;41.69;102188.22;5075819;27;45435;-75
2023/04/03 11:17:16;;;;;;;;;4.50;4.50;;;;;12.39;40.44;102188.50;5075519;27;45337;-76
2023/04/03 11:19:48;;;;;;;;;4.00;4.00;;;;;12.53;40.10;102191.63;5072175;28;45540;-78
2023/04/03 11:22:28;;;;;;;;;4.50;4.25;;;;;12.69;41.08;102197.41;5074514;27;45646;-79
2023/04/03 11:25:23;;;;;;;;;5.75;5.25;;;;;12.86;40.87;102182.47;5071990;28;46861;-79
2023/04/03 11:27:57;;;;;;;;;8.25;6.75;;;;;13.06;41.49;102159.41;5067047;28;45614;-80
2023/04/03 11:30:38;;;;;;;;;6.00;5.25;;;;;13.14;39.59;102160.06;5074261;28;45325;-78
2023/04/03 11:33:31;;;;;;;;;6.50;6.50;;;;;13.39;39.99;102174.44;5074910;27;46313;-78
2023/04/03 11:36:10;;;;;;;;;6.25;5.50;;;;;13.55;39.75;102172.09;5072296;28;45482;-78
2023/04/03 11:38:41;;;;;;;;;5.25;5.25;;;;;13.54;38.53;102135.31;5075972;28;45592;-79
2023/04/03 11:41:10;;;;;;;;;6.00;4.75;;;;;13.82;37.63;102163.03;5074657;28;45263;-79
2023/04/03 11:43:42;;;;;;;;;8.00;7.00;;;;;13.91;37.87;102165.38;5074081;28;47291;-80
2023/04/03 11:46:08;;;;;;;;;8.75;6.75;;;;;14.12;37.67;102162.81;5090692;27;45505;-79
2023/04/03 11:48:33;;;;;;;;;5.50;5.50;;;;;14.24;37.21;102162.34;5076173;27;45341;-79
2023/04/03 11:51:00;;;;;;;;;4.00;4.00;;;;;14.33;37.27;102143.97;5074548;28;45489;-78
2023/04/03 11:53:34;;;;;;;;;5.75;5.75;;;;;14.46;36.94;102155.19;5076730;27;45348;-77
2023/04/03 11:56:23;;;;;;;;;5.00;5.00;;;;;14.37;36.81;102117.78;5088257;27;45457;-77
2023/04/03 11:59:11;;;;;;;;;5.00;5.00;;;;;14.81;35.92;102142.97;5073274;28;45507;-80
2023/04/03 12:01:52;;;;;;;;;4.25;4.25;;;;;14.95;34.96;102143.31;5074123;28;45380;-78
2023/04/03 12:04:21;;;;;;;;;7.50;5.50;;;;;14.95;35.59;102129.78;5087781;27;47900;-79
2023/04/03 12:06:46;;;;;;;;;3.25;3.25;;;;;15.13;35.40;102144.34;5090941;27;46220;-77
2023/04/03 12:09:39;;;;;;;;;5.25;5.00;;;;;15.21;35.15;102139.50;5073973;28;45708;-77
2023/04/03 12:12:38;;;;;;;;;5.00;5.00;;;;;15.31;34.52;102131.88;5076042;27;45243;-77
2023/04/03 12:15:50;;;;;;;;;3.00;3.00;;;;;15.57;35.69;102134.31;5075225;27;45398;-79
2023/04/03 12:18:40;;;;;;;;;5.00;5.00;;;;;15.83;35.50;102128.59;5069011;28;45868;-79
2023/04/03 12:21:06;;;;;;;;;3.50;3.50;;;;;15.87;33.43;102091.50;5072870;28;45511;-78
2023/04/03 12:23:54;;;;;;;;;4.50;4.50;;;;;16.11;34.27;102125.50;5075136;28;45401;-79
2023/04/03 12:26:26;;;;;;;;;6.50;5.00;;;;;16.47;35.07;102125.59;5071165;28;48132;-78
2023/04/03 12:28:53;;;;;;;;;5.50;4.25;;;;;16.79;34.66;102124.03;5074614;27;45344;-79
2023/04/03 12:31:20;;;;;;;;;5.00;5.00;;;;;16.78;32.35;102078.94;5074373;27;45337;-81
2023/04/03 12:34:14;;;;;;;;;4.50;4.00;;;;;17.19;31.97;102122.88;5074983;27;46582;-80
2023/04/03 12:36:57;;;;;;;;;1.75;1.75;;;;;17.17;32.67;102080.56;5084450;27;47413;-80
2023/04/03 12:39:46;;;;;;;;;4.75;4.75;;;;;17.76;31.32;102118.97;5074990;28;45548;-79
2023/04/03 12:42:53;;;;;;;;;4.50;4.50;;;;;18.52;30.09;102117.44;5053797;28;45321;-79
2023/04/03 12:45:23;;;;;;;;;3.25;3.25;;;;;19.43;29.46;102100.25;5051721;27;45340;-80
2023/04/03 12:47:52;;;;;;;;;4.00;4.00;;;;;20.48;27.71;102103.59;5069446;28;48339;-80
2023/04/03 12:50:23;;;;;;;;;3.25;3.25;;;;;21.43;27.45;102102.56;5072670;28;45507;-76
2023/04/03 12:52:59;;;;;;;;;3.75;3.75;;;;;22.46;25.54;102105.09;5072720;28;45444;-75
2023/04/03 12:55:26;;;;;;;;;3.25;3.25;;;;;23.13;24.11;102086.34;5075362;28;45349;-78
2023/04/03 12:57:51;;;;;;;;;2.00;2.00;;;;;23.86;24.29;102071.47;5076309;28;45403;-77
2023/04/03 13:00:38;;;;;;;;;3.00;3.00;;;;;24.91;22.79;102081.91;5073410;28;45314;-76
2023/04/03 13:03:06;;;;;;;;;5.25;3.50;;;;;25.70;22.04;102080.53;5074938;27;45327;-74
2023/04/03 13:05:33;;;;;;;;;3.75;3.50;;;;;26.26;21.02;102089.22;5073628;27;45546;-75
2023/04/03 13:08:03;;;;;;;;;2.75;2.50;;;;;26.91;21.69;102083.16;5074533;28;46313;-75
2023/04/03 13:10:29;;;;;;;;;3.25;3.00;;;;;27.71;21.26;102082.81;5072782;28;45420;-76
2023/04/03 13:13:07;;;;;;;;;3.75;3.00;;;;;28.22;19.22;102071.34;5072713;28;45368;-75
2023/04/03 13:15:46;;;;;;;;;3.25;3.25;;;;;28.56;19.05;102056.91;5072123;28;45271;-75
2023/04/03 13:18:34;;;;;;;;;4.50;4.25;;;;;28.89;17.91;102061.78;5067555;28;45687;-74
2023/04/03 13:21:16;;;;;;;;;2.75;2.75;;;;;29.19;18.15;102051.31;5074107;27;45379;-75
2023/04/03 13:23:45;;;;;;;;;3.50;3.25;;;;;29.49;18.22;102061.09;5073658;27;45397;-73
2023/04/03 13:26:12;;;;;;;;;2.00;2.00;;;;;29.85;17.82;102056.34;5089830;27;46017;-74
2023/04/03 13:28:40;;;;;;;;;2.25;2.25;;;;;30.08;17.57;102052.84;5073236;27;45451;-74
2023/04/03 13:31:11;;;;;;;;;4.00;4.00;;;;;29.93;17.74;102057.25;5072982;27;45230;-74
2023/04/03 13:33:37;;;;;;;;;5.75;4.00;;;;;30.31;17.93;102060.53;5074245;27;45487;-75
2023/04/03 13:36:21;;;;;;;;;3.75;3.75;;;;;30.78;16.98;102060.91;5069820;27;45572;-75
2023/04/03 13:38:58;;;;;;;;;4.50;4.50;;;;;30.76;16.17;102043.56;5067588;28;45396;-76
2023/04/03 13:41:35;;;;;;;;;3.75;3.75;;;;;31.00;16.75;102051.03;5077648;27;45443;-76
2023/04/03 13:44:22;;;;;;;;;2.25;2.25;;;;;31.09;16.18;102053.69;5077788;28;45423;-74
2023/04/03 13:47:20;;;;;;;;;2.00;2.00;;;;;31.27;15.84;102058.19;5077551;27;45620;-74
2023/04/03 13:50:11;;;;;;;;;3.00;3.00;;;;;31.44;15.72;102060.78;5052405;28;46662;-73
2023/04/03 13:52:52;;;;;;;;;3.00;3.00;;;;;31.53;15.60;102051.41;5060709;28;45209;-74
2023/04/03 13:55:24;;;;;;;;;2.75;2.75;;;;;31.40;15.75;102047.41;5077621;27;45396;-75
2023/04/03 13:57:58;;;;;;;;;2.25;2.25;;;;;31.38;15.52;102047.63;5077729;27;45423;-75
2023/04/03 14:00:27;;;;;;;;;3.50;3.50;;;;;31.44;16.77;102043.28;5077418;27;45464;-75
2023/04/03 14:02:56;;;;;;;;;3.25;3.25;;;;;31.44;15.46;102049.69;5077457;27;45431;-74
2023/04/03 14:05:21;;;;;;;;;4.50;1.25;;;;;31.33;15.80;102029.75;5076889;27;45300;-75
2023/04/03 14:07:47;;;;;;;;;3.50;2.50;;;;;31.30;15.41;102038.44;5076122;27;46236;-75
2023/04/03 14:10:12;;;;;;;;;5.00;3.25;;;;;31.46;16.05;102036.53;5073901;28;50783;-75
2023/04/03 14:12:41;;;;;;;;;5.00;4.25;;;;;31.38;15.34;102030.13;5074988;28;45437;-75
2023/04/03 14:15:24;;;;;;;;;4.00;2.00;;;;;31.40;15.66;102031.66;5076131;28;45529;-75
2023/04/03 14:17:51;;;;;;;;;1.75;1.75;;;;;31.11;16.12;102029.44;5077298;28;45546;-75
2023/04/03 14:20:19;;;;;;;;;4.00;3.00;;;;;31.09;16.42;102020.44;5077311;27;46288;-75
2023/04/03 14:22:45;;;;;;;;;5.75;5.00;;;;;30.93;16.28;102001.00;5077000;27;45392;-75
2023/04/03 14:25:10;;;;;;;;;4.00;2.00;;;;;31.06;16.21;102025.41;5075686;28;45367;-74
2023/04/03 14:27:39;;;;;;;;;2.00;2.00;;;;;31.08;16.30;102029.78;5076067;27;45561;-75
2023/04/03 14:30:08;;;;;;;;;4.50;3.00;;;;;31.06;16.18;102017.09;5076750;27;46316;-75
2023/04/03 14:32:33;;;;;;;;;6.00;2.75;;;;;31.23;16.73;102016.09;5075074;27;45502;-73
2023/04/03 14:35:00;;;;;;;;;2.00;2.00;;;;;31.14;16.24;102003.28;5076846;27;45367;-76
2023/04/03 14:37:28;;;;;;;;;3.00;3.00;;;;;31.19;15.58;102020.25;5076833;27;45332;-75
2023/04/03 14:39:56;;;;;;;;;2.75;2.75;;;;;30.97;16.50;102013.47;5076936;28;45329;-75
2023/04/03 14:42:26;;;;;;;;;5.00;4.00;;;;;30.76;15.64;102010.34;5077175;27;45417;-75
2023/04/03 14:44:52;;;;;;;;;3.00;3.00;;;;;30.46;15.95;102004.38;5076782;28;45476;-76
2023/04/03 14:47:21;;;;;;;;;3.00;3.00;;;;;30.24;16.34;102001.38;5076574;27;45384;-76
2023/04/03 14:49:47;;;;;;;;;3.25;2.25;;;;;30.17;16.25;102005.84;5076226;27;45392;-75
2023/04/03 14:52:25;;;;;;;;;5.00;3.00;;;;;30.18;16.33;102002.06;5075118;28;45472;-77
2023/04/03 14:54:52;;;;;;;;;2.75;2.75;;;;;30.07;17.49;101997.69;5077062;27;45352;-74
2023/04/03 14:57:21;;;;;;;;;5.75;3.00;;;;;29.86;16.87;101991.72;5076605;27;45249;-75
2023/04/03 14:59:46;;;;;;;;;2.75;2.25;;;;;29.68;16.91;101987.13;5076504;27;46367;-74
2023/04/03 15:02:35;;;;;;;;;3.50;2.00;;;;;29.51;17.58;101988.06;5076450;27;45320;-76
2023/04/03 15:05:03;;;;;;;;;2.75;2.75;;;;;29.50;18.09;101994.63;5076233;27;45305;-76
2023/04/03 15:07:33;;;;;;;;;2.00;2.00;;;;;29.44;17.10;101986.97;5076248;27;46058;-75
2023/04/03 15:10:27;;;;;;;;;4.50;4.50;;;;;29.21;16.79;101991.28;5076437;28;46140;-76
2023/04/03 15:12:53;;;;;;;;;3.00;3.00;;;;;28.92;17.22;101995.19;5075218;27;45346;-75
2023/04/03 15:15:21;;;;;;;;;2.25;2.25;;;;;28.69;17.68;101985.63;5076306;27;45388;-76
2023/04/03 15:17:50;;;;;;;;;4.00;3.00;;;;;28.52;17.70;101970.81;5078045;27;45469;-76
2023/04/03 15:20:22;;;;;;;;;2.75;2.75;;;;;28.27;17.28;101978.97;5075926;27;45612;-74
2023/04/03 15:22:48;;;;;;;;;3.75;2.75;;;;;28.08;17.69;101990.97;5076053;28;45392;-74
2023/04/03 15:25:14;;;;;;;;;3.75;2.25;;;;;27.78;18.11;101962.69;5058020;28;45361;-73
2023/04/03 15:27:41;;;;;;;;;4.75;4.00;;;;;27.60;17.81;101956.25;5076399;27;45449;-77
2023/04/03 15:30:11;;;;;;;;;7.00;2.50;;;;;27.64;18.44;101971.47;5075779;27;45494;-80
2023/04/03 15:32:36;;;;;;;;;2.00;2.00;;;;;27.69;19.38;101976.50;5074122;28;45423;-77
2023/04/03 15:35:02;;;;;;;;;4.75;3.00;;;;;27.58;18.76;101966.53;5075713;27;45390;-79
2023/04/03 15:37:28;;;;;;;;;4.50;3.00;;;;;27.30;18.45;101965.63;5075310;27;45427;-77
2023/04/03 15:39:53;;;;;;;;;3.00;3.00;;;;;27.10;19.25;101974.94;5075893;27;45865;-79
2023/04/03 15:42:19;;;;;;;;;2.75;2.75;;;;;27.03;18.72;101988.41;5076188;27;45476;-79
2023/04/03 15:44:45;;;;;;;;;2.75;2.75;;;;;26.52;18.72;101961.19;5076383;27;45342;-79
2023/04/03 15:47:10;;;;;;;;;2.00;2.00;;;;;26.60;18.95;102004.47;5075736;27;45574;-79
2023/04/03 15:49:36;;;;;;;;;3.00;2.75;;;;;26.02;19.36;101940.25;5055025;28;47290;-80
2023/04/03 15:52:02;;;;;;;;;3.50;3.50;;;;;26.05;19.00;102003.16;5064588;28;45769;-76
2023/04/03 15:54:29;;;;;;;;;3.50;3.50;;;;;25.60;19.81;101989.88;5064992;27;46054;-76
2023/04/03 15:56:55;;;;;;;;;4.75;3.25;;;;;25.33;20.23;101984.91;5075647;27;45394;-77
2023/04/03 15:59:20;;;;;;;;;3.50;2.75;;;;;25.16;20.81;101955.34;5075542;28;46010;-76
2023/04/03 16:01:46;;;;;;;;;2.50;2.50;;;;;25.26;20.92;101967.25;5074408;27;45357;-77
2023/04/03 16:04:11;;;;;;;;;2.75;2.75;;;;;25.11;20.68;101960.34;5075609;27;45478;-77
2023/04/03 16:06:38;;;;;;;;;4.00;2.25;;;;;25.07;20.96;101981.72;5075687;27;45286;-77
2023/04/03 16:09:04;;;;;;;;;2.25;2.25;;;;;24.97;20.68;101983.50;5075660;27;45722;-77
2023/04/03 16:11:30;;;;;;;;;3.75;2.00;;;;;24.72;21.18;101984.75;5075412;28;45349;-78